Wooster, OH

1:01 PM EST on December 09, 2016 (GMT -0500)
Wayne County | | Change Station

Elev 1135 ft 40.87 °N, 81.89 °W | Updated 5 minutes ago

Light Snow
Light Snow
25 °F
Feels Like 13 °F
N
15
Wind Variable Wind from West

Today
High -- | Low -- °F
--% Chance of Precip.
Yesterday
High -- | Low -- °F
Precip. -- in
Pressure 30.44 in
Visibility 6.0 miles
Clouds Overcast 1600 ft
Windchill 13 °F
Dew Point 19 °F
Humidity 78%
Rainfall 0.00 in
Snow Depth Not available.
7:40 AM 4:59 PM
Waxing Gibbous, 76% visible
METAR KBJJ 091756Z AUTO 27013KT 6SM -SN OVC016 M04/M07 A3038 RMK AO2 SNB43 SLP306 P0000 60000 T10391072 11039 21061 58004
Pressure 30.44 in
Visibility 6.0 miles
Clouds Overcast 1600 ft
Windchill 13 °F
Dew Point 19 °F
Humidity 78%
Rainfall 0.00 in
Snow Depth Not available.
7:40 AM 4:59 PM
Waxing Gibbous, 76% visible
METAR KBJJ 091756Z AUTO 27013KT 6SM -SN OVC016 M04/M07 A3038 RMK AO2 SNB43 SLP306 P0000 60000 T10391072 11039 21061 58004

10-Day Weather Forecast

Almanac

Astronomy

Dec. 09, 2016 Rise Set
Actual Time
Civil Twilight
Nautical Twilight
Astronomical Twilight
Moon
Length of Visible Light
Length of Day
Tomorrow will be .
, % of the Moon is Illuminated

Today's Extremes

State Highs State Lows

Community

WunderPhotos

Upload Photos

1,956,499 photos uploaded!

WunderBlog® & News

Nearby

Air Quality

  Air Quality AQ Index Pollutant
Not available.

Snow Depth

Station Depth Elevation

Earthquake Activity

City Distance Mag. Time & Date
Minimum magnitude displayed is 2.5.

Coastal Water Temperatures

Place Temperature

Stations

Nearby Weather Stations

Station Location Temp. Windchill Dew Point Humidity Wind Precip. Elev Updated Type
                   

Watches & Warnings

There are currently no watches in effect.